createdAt,value
2023-08-26T00:02:35.850Z,68.45
2023-08-26T00:05:42.236Z,68.70
2023-08-26T00:08:48.045Z,68.82
2023-08-26T00:11:53.793Z,68.87
2023-08-26T00:14:59.641Z,69.00
2023-08-26T00:18:05.216Z,69.08
2023-08-26T00:21:12.783Z,69.13
2023-08-26T00:24:19.456Z,69.07
2023-08-26T00:27:26.439Z,69.11
2023-08-26T00:30:32.788Z,69.13
2023-08-26T00:33:38.975Z,69.11
2023-08-26T00:36:46.123Z,69.14
2023-08-26T00:39:50.676Z,69.21
2023-08-26T00:42:57.160Z,69.38
2023-08-26T00:46:04.313Z,69.47
2023-08-26T00:49:10.414Z,69.52
2023-08-26T00:52:17.798Z,69.59
2023-08-26T00:55:24.692Z,69.68
2023-08-26T00:58:30.832Z,69.72
2023-08-26T01:01:36.192Z,69.84
2023-08-26T01:04:42.034Z,69.97
2023-08-26T01:07:47.804Z,70.07
2023-08-26T01:11:39.639Z,70.20
2023-08-26T01:14:52.699Z,70.27
2023-08-26T01:17:58.297Z,70.30
2023-08-26T01:21:04.990Z,70.43
2023-08-26T01:24:12.174Z,70.63
2023-08-26T01:27:19.261Z,70.57
2023-08-26T01:30:26.977Z,70.55
2023-08-26T01:33:37.673Z,70.64
2023-08-26T01:36:42.659Z,70.78
2023-08-26T01:39:48.836Z,70.79
2023-08-26T01:42:57.000Z,70.78
2023-08-26T01:46:02.619Z,70.80
2023-08-26T01:49:07.824Z,70.94
2023-08-26T01:52:12.454Z,71.03
2023-08-26T01:55:17.815Z,71.13
2023-08-26T01:58:24.887Z,71.11
2023-08-26T02:01:30.151Z,71.30
2023-08-26T02:04:36.736Z,71.54
2023-08-26T02:07:42.556Z,71.60
2023-08-26T02:10:49.174Z,71.57
2023-08-26T02:13:56.630Z,71.61
2023-08-26T02:17:03.305Z,71.62
2023-08-26T02:20:10.684Z,71.64
2023-08-26T02:23:17.582Z,71.63
2023-08-26T02:26:23.132Z,71.67
2023-08-26T02:29:29.093Z,71.64
2023-08-26T02:32:34.135Z,71.63
2023-08-26T02:35:40.279Z,71.63
2023-08-26T02:38:46.558Z,71.71
2023-08-26T02:41:52.615Z,71.67
2023-08-26T02:44:59.907Z,71.64
2023-08-26T02:48:05.757Z,71.83
2023-08-26T02:51:15.612Z,72.00
2023-08-26T02:54:20.671Z,72.08
2023-08-26T02:57:27.858Z,72.02
2023-08-26T03:00:34.920Z,72.10
2023-08-26T03:03:41.078Z,72.09
2023-08-26T03:06:47.969Z,72.07
2023-08-26T03:09:54.442Z,72.08
2023-08-26T03:13:00.613Z,72.11
2023-08-26T03:16:07.436Z,72.16
2023-08-26T03:19:14.092Z,72.31
2023-08-26T03:22:19.907Z,72.50
2023-08-26T03:25:19.512Z,72.58
2023-08-26T03:28:26.596Z,72.62
2023-08-26T03:31:34.060Z,72.66
2023-08-26T03:34:40.800Z,72.65
2023-08-26T03:37:48.011Z,72.65
2023-08-26T03:40:56.475Z,72.77
2023-08-26T03:44:02.263Z,72.82
2023-08-26T03:47:07.454Z,72.95
2023-08-26T03:50:14.590Z,73.06
2023-08-26T03:53:20.499Z,73.11
2023-08-26T03:56:26.403Z,73.16
2023-08-26T03:59:32.401Z,73.23
2023-08-26T04:02:38.810Z,73.28
2023-08-26T04:05:44.530Z,73.39
2023-08-26T04:08:52.165Z,73.51
2023-08-26T04:11:58.219Z,73.55
2023-08-26T04:15:03.913Z,73.60
2023-08-26T04:18:11.315Z,73.71
2023-08-26T04:21:17.462Z,73.78
2023-08-26T04:24:23.327Z,73.90
2023-08-26T04:27:27.911Z,73.95
2023-08-26T04:30:33.593Z,74.02
2023-08-26T04:33:40.872Z,74.08
2023-08-26T04:36:46.683Z,74.10
2023-08-26T04:39:52.826Z,74.10
2023-08-26T04:42:59.849Z,74.16
2023-08-26T04:46:07.138Z,74.20
2023-08-26T04:49:14.221Z,74.26
2023-08-26T04:52:19.762Z,74.36
2023-08-26T04:55:26.128Z,74.41
2023-08-26T04:58:31.600Z,74.41
2023-08-26T05:01:39.176Z,74.46
2023-08-26T05:04:45.837Z,74.51
2023-08-26T05:07:51.930Z,74.54
2023-08-26T05:10:58.322Z,74.57
2023-08-26T05:14:04.343Z,74.45
2023-08-26T05:17:09.807Z,74.51
2023-08-26T05:20:16.788Z,74.58
2023-08-26T05:23:21.640Z,74.61
2023-08-26T05:26:26.676Z,74.65
2023-08-26T05:29:33.444Z,74.73
2023-08-26T05:32:41.303Z,74.75
2023-08-26T05:35:47.564Z,74.76
2023-08-26T05:38:53.548Z,74.78
2023-08-26T05:41:58.726Z,74.77
2023-08-26T05:45:05.806Z,74.82
2023-08-26T05:48:11.479Z,74.86
2023-08-26T05:51:10.750Z,74.93
2023-08-26T05:54:18.634Z,74.96
2023-08-26T05:57:24.179Z,74.97
2023-08-26T06:00:35.450Z,74.97
2023-08-26T06:03:40.852Z,75.00
2023-08-26T06:06:47.451Z,75.03
2023-08-26T06:09:52.537Z,75.04
2023-08-26T06:12:58.746Z,75.02
2023-08-26T06:16:11.739Z,75.00
2023-08-26T06:19:18.513Z,74.99
2023-08-26T06:22:23.646Z,74.92
2023-08-26T06:25:29.789Z,74.92
2023-08-26T06:28:36.160Z,74.88
2023-08-26T06:31:41.853Z,74.84
2023-08-26T06:34:47.974Z,74.79
2023-08-26T06:37:54.069Z,74.75
2023-08-26T06:40:59.392Z,74.71
2023-08-26T06:44:05.965Z,74.66
2023-08-26T06:47:15.002Z,74.60
2023-08-26T06:50:23.958Z,74.52
2023-08-26T06:53:31.756Z,74.43
2023-08-26T06:56:38.548Z,74.34
2023-08-26T06:59:46.324Z,74.26
2023-08-26T07:02:51.257Z,74.16
2023-08-26T07:06:03.180Z,74.06
2023-08-26T07:09:10.858Z,73.97
2023-08-26T07:12:15.627Z,73.81
2023-08-26T07:15:21.986Z,73.72
2023-08-26T07:18:27.518Z,73.58
2023-08-26T07:21:34.364Z,73.46
2023-08-26T07:24:39.829Z,73.30
2023-08-26T07:27:45.684Z,73.13
2023-08-26T07:30:52.756Z,72.95
2023-08-26T07:34:00.071Z,72.83
2023-08-26T07:37:08.268Z,72.58
2023-08-26T07:40:17.810Z,72.35
2023-08-26T07:43:22.745Z,72.06
2023-08-26T07:49:37.607Z,71.65
2023-08-26T07:52:42.647Z,71.51
2023-08-26T07:55:50.483Z,71.25
2023-08-26T07:58:57.237Z,71.03
2023-08-26T08:02:04.164Z,70.87
2023-08-26T08:05:11.244Z,70.68
2023-08-26T08:08:16.383Z,70.44
2023-08-26T08:11:21.343Z,70.21
2023-08-26T08:14:27.083Z,70.06
2023-08-26T08:17:33.443Z,69.82
2023-08-26T08:20:39.654Z,69.58
2023-08-26T08:23:46.147Z,69.33
2023-08-26T08:26:51.684Z,69.10
2023-08-26T08:29:59.029Z,68.85
2023-08-26T08:33:04.823Z,68.59
2023-08-26T08:36:11.808Z,68.31
2023-08-26T08:39:17.940Z,68.04
2023-08-26T08:42:25.915Z,67.82
2023-08-26T08:45:31.547Z,67.56
2023-08-26T08:48:39.308Z,67.28
2023-08-26T08:51:44.665Z,67.03
2023-08-26T08:54:50.043Z,66.72
2023-08-26T08:57:58.767Z,66.45
2023-08-26T09:01:06.885Z,66.19
2023-08-26T09:04:11.956Z,65.86
2023-08-26T09:07:22.504Z,65.57
2023-08-26T09:10:26.724Z,65.38
2023-08-26T09:13:31.355Z,65.13
2023-08-26T09:16:45.252Z,64.74
2023-08-26T09:19:52.971Z,64.36
2023-08-26T09:22:59.036Z,64.17
2023-08-26T09:26:10.868Z,63.85
2023-08-26T09:29:17.343Z,63.61
2023-08-26T09:32:24.894Z,63.32
2023-08-26T09:38:42.472Z,62.74
2023-08-26T09:41:48.213Z,62.49
2023-08-26T09:44:56.421Z,62.13
2023-08-26T09:48:05.705Z,61.83
2023-08-26T09:51:12.432Z,61.54
2023-08-26T09:54:18.648Z,61.29
2023-08-26T09:57:25.890Z,61.00
2023-08-26T10:00:32.871Z,60.69
2023-08-26T10:03:39.983Z,60.32
2023-08-26T10:06:46.443Z,59.99
2023-08-26T10:10:07.590Z,59.71
2023-08-26T10:13:18.882Z,59.26
2023-08-26T10:16:33.920Z,58.84
2023-08-26T10:19:34.833Z,58.49
2023-08-26T10:22:41.436Z,58.25
2023-08-26T10:25:47.632Z,58.05
2023-08-26T10:28:55.350Z,57.60
2023-08-26T10:32:00.631Z,57.10
2023-08-26T10:35:14.572Z,56.73
2023-08-26T10:38:28.206Z,56.51
2023-08-26T10:41:33.910Z,56.13
2023-08-26T10:44:53.515Z,55.73
2023-08-26T10:48:00.477Z,55.39
2023-08-26T10:51:16.568Z,55.00
2023-08-26T10:54:24.804Z,54.54
2023-08-26T10:57:30.678Z,53.46
2023-08-26T11:00:38.173Z,53.46
2023-08-26T11:03:45.383Z,53.75
2023-08-26T11:06:53.972Z,53.52
2023-08-26T11:10:01.458Z,53.24
2023-08-26T11:13:06.789Z,52.46
2023-08-26T11:16:15.483Z,52.46
2023-08-26T11:19:22.844Z,52.23
2023-08-26T11:22:28.899Z,51.73
2023-08-26T11:25:34.449Z,51.60
2023-08-26T11:28:41.416Z,51.36
2023-08-26T11:31:49.104Z,51.09
2023-08-26T11:34:55.926Z,50.78
2023-08-26T11:38:05.172Z,50.34
2023-08-26T11:41:12.817Z,49.84
2023-08-26T11:44:23.252Z,49.39
2023-08-26T11:47:30.324Z,49.09
2023-08-26T11:50:35.318Z,48.86
2023-08-26T11:53:41.108Z,48.66
2023-08-26T11:56:46.211Z,48.35
2023-08-26T11:59:54.686Z,48.03
2023-08-26T12:03:07.035Z,47.71
2023-08-26T12:06:13.892Z,47.47
2023-08-26T12:09:20.168Z,47.31
2023-08-26T12:12:26.616Z,47.02
2023-08-26T12:15:33.559Z,46.84
2023-08-26T12:18:39.029Z,46.69
2023-08-26T12:21:47.574Z,46.44
2023-08-26T12:24:54.838Z,46.17
2023-08-26T12:28:01.789Z,45.88
2023-08-26T12:31:07.039Z,45.58
2023-08-26T12:34:13.214Z,45.31
2023-08-26T12:37:21.713Z,45.06
2023-08-26T12:40:30.346Z,44.81
2023-08-26T12:43:37.749Z,44.56
2023-08-26T12:46:44.111Z,44.36
2023-08-26T12:49:50.818Z,44.26
2023-08-26T12:52:56.307Z,44.13
2023-08-26T12:56:02.343Z,43.93
2023-08-26T12:59:07.631Z,43.73
2023-08-26T13:02:14.348Z,43.52
2023-08-26T13:05:24.091Z,43.33
2023-08-26T13:08:29.682Z,43.16
2023-08-26T13:11:34.829Z,43.03
2023-08-26T13:14:40.811Z,42.91
2023-08-26T13:17:46.533Z,42.70
2023-08-26T13:20:56.517Z,42.58
2023-08-26T13:24:01.646Z,42.39
2023-08-26T13:27:08.368Z,42.20
2023-08-26T13:30:14.512Z,42.11
2023-08-26T13:33:23.020Z,42.01
2023-08-26T13:36:36.232Z,41.90
2023-08-26T13:39:36.836Z,41.79
2023-08-26T13:42:42.403Z,41.66
2023-08-26T13:45:49.196Z,41.57
2023-08-26T13:48:56.298Z,41.47
2023-08-26T13:52:02.278Z,41.39
2023-08-26T13:55:08.726Z,41.34
2023-08-26T13:58:14.329Z,41.35
2023-08-26T14:01:19.721Z,41.27
2023-08-26T14:04:27.028Z,41.27
2023-08-26T14:07:35.043Z,41.26
2023-08-26T14:10:41.519Z,41.23
2023-08-26T14:13:47.663Z,41.27
2023-08-26T14:16:53.210Z,41.25
2023-08-26T14:19:59.764Z,41.28
2023-08-26T14:23:07.164Z,41.31
2023-08-26T14:26:13.322Z,41.34
2023-08-26T14:29:19.625Z,41.35
2023-08-26T14:32:26.376Z,41.33
2023-08-26T14:35:31.920Z,41.36
2023-08-26T14:38:37.202Z,41.46
2023-08-26T14:41:44.336Z,41.56
2023-08-26T14:44:49.754Z,41.59
2023-08-26T14:47:56.963Z,41.63
2023-08-26T14:51:09.445Z,41.63
2023-08-26T14:54:13.934Z,41.63
2023-08-26T14:57:20.716Z,41.67
2023-08-26T15:00:26.630Z,41.77
2023-08-26T15:03:32.466Z,41.87
2023-08-26T15:06:38.062Z,41.99
2023-08-26T15:09:44.859Z,42.09
2023-08-26T15:12:51.543Z,42.26
2023-08-26T15:16:02.159Z,42.42
2023-08-26T15:19:08.804Z,42.58
2023-08-26T15:22:16.762Z,42.71
2023-08-26T15:25:22.839Z,42.90
2023-08-26T15:28:28.501Z,43.02
2023-08-26T15:31:33.578Z,43.13
2023-08-26T15:34:38.681Z,43.25
2023-08-26T15:37:45.556Z,43.29
2023-08-26T15:40:52.753Z,43.25
2023-08-26T15:43:58.796Z,43.86
2023-08-26T15:47:05.287Z,43.94
2023-08-26T15:50:12.301Z,43.94
2023-08-26T15:53:19.019Z,43.86
2023-08-26T15:56:24.205Z,44.02
2023-08-26T15:59:29.540Z,44.22
2023-08-26T16:02:35.265Z,44.27
2023-08-26T16:05:42.500Z,44.37
2023-08-26T16:08:48.726Z,44.51
2023-08-26T16:11:53.335Z,44.58
2023-08-26T16:15:00.379Z,44.63
2023-08-26T16:18:06.707Z,44.65
2023-08-26T16:21:12.789Z,44.75
2023-08-26T16:24:20.785Z,44.79
2023-08-26T16:27:27.650Z,44.87
2023-08-26T16:30:32.801Z,44.93
2023-08-26T16:33:39.065Z,45.06
2023-08-26T16:36:44.889Z,45.17
2023-08-26T16:39:51.482Z,45.25
2023-08-26T16:42:57.898Z,45.33
2023-08-26T16:46:06.594Z,45.43
2023-08-26T16:49:12.855Z,45.53
2023-08-26T16:52:20.927Z,45.61
2023-08-26T16:55:27.482Z,45.70
2023-08-26T16:58:33.329Z,45.77
2023-08-26T17:01:38.717Z,45.86
2023-08-26T17:04:45.028Z,45.94
2023-08-26T17:07:50.405Z,46.01
2023-08-26T17:10:56.115Z,46.05
2023-08-26T17:14:01.472Z,46.13
2023-08-26T17:17:08.886Z,46.20
2023-08-26T17:20:15.288Z,46.28
2023-08-26T17:23:20.684Z,46.40
2023-08-26T17:26:26.524Z,46.47
2023-08-26T17:29:32.341Z,46.57
2023-08-26T17:32:39.396Z,46.66
2023-08-26T17:35:46.274Z,46.75
2023-08-26T17:38:53.666Z,46.85
2023-08-26T17:42:00.617Z,46.96
2023-08-26T17:45:05.767Z,47.09
2023-08-26T17:48:11.714Z,47.21
2023-08-26T17:51:18.268Z,47.34
2023-08-26T17:54:23.257Z,47.51
2023-08-26T17:57:32.093Z,47.70
2023-08-26T18:00:37.804Z,47.89
2023-08-26T18:03:43.568Z,48.05
2023-08-26T18:06:50.090Z,48.21
2023-08-26T18:09:56.304Z,48.30
2023-08-26T18:13:04.893Z,48.40
2023-08-26T18:16:10.471Z,48.50
2023-08-26T18:19:16.620Z,48.60
2023-08-26T18:22:22.676Z,48.67
2023-08-26T18:25:30.969Z,48.79
2023-08-26T18:28:37.362Z,48.92
2023-08-26T18:31:42.983Z,49.01
2023-08-26T18:34:52.446Z,49.13
2023-08-26T18:38:00.184Z,49.22
2023-08-26T18:41:13.480Z,49.34
2023-08-26T18:44:20.837Z,49.40
2023-08-26T18:47:27.322Z,49.46
2023-08-26T18:50:33.623Z,49.60
2023-08-26T18:53:39.457Z,49.67
2023-08-26T18:56:45.527Z,49.72
2023-08-26T18:59:52.108Z,49.77
2023-08-26T19:02:59.013Z,49.84
2023-08-26T19:06:05.874Z,49.92
2023-08-26T19:09:11.659Z,50.02
2023-08-26T19:12:18.908Z,50.06
2023-08-26T19:15:25.295Z,50.13
2023-08-26T19:18:33.091Z,50.18
2023-08-26T19:21:40.158Z,50.23
2023-08-26T19:24:47.969Z,50.28
2023-08-26T19:27:55.098Z,50.36
2023-08-26T19:31:01.866Z,50.44
2023-08-26T19:34:06.945Z,50.53
2023-08-26T19:37:11.556Z,50.59
2023-08-26T19:40:20.197Z,50.67
2023-08-26T19:43:26.911Z,50.72
2023-08-26T19:46:32.917Z,50.76
2023-08-26T19:49:41.465Z,50.83
2023-08-26T19:52:48.296Z,50.92
2023-08-26T19:55:54.633Z,50.97
2023-08-26T19:58:59.926Z,51.03
2023-08-26T20:02:06.254Z,51.08
2023-08-26T20:05:13.215Z,51.11
2023-08-26T20:08:21.014Z,51.15
2023-08-26T20:11:26.850Z,51.13
2023-08-26T20:14:33.246Z,51.17
2023-08-26T20:17:40.958Z,51.22
2023-08-26T20:20:48.107Z,51.27
2023-08-26T20:23:53.828Z,51.35
2023-08-26T20:26:59.632Z,51.43
2023-08-26T20:30:05.133Z,51.52
2023-08-26T20:33:12.031Z,51.54
2023-08-26T20:36:18.276Z,51.60
2023-08-26T20:39:24.390Z,51.74
2023-08-26T20:42:31.819Z,51.84
2023-08-26T20:45:37.765Z,51.92
2023-08-26T20:48:44.046Z,51.98
2023-08-26T20:51:50.198Z,52.06
2023-08-26T20:54:55.117Z,52.15
2023-08-26T20:58:01.727Z,52.24
2023-08-26T21:01:11.098Z,52.32
2023-08-26T21:04:16.947Z,52.44
2023-08-26T21:07:24.264Z,52.56
2023-08-26T21:10:32.484Z,52.70
2023-08-26T21:13:37.996Z,52.85
2023-08-26T21:16:45.447Z,52.96
2023-08-26T21:19:51.539Z,53.09
2023-08-26T21:22:57.232Z,53.25
2023-08-26T21:26:07.520Z,53.34
2023-08-26T21:29:13.739Z,53.45
2023-08-26T21:32:19.002Z,53.58
2023-08-26T21:35:25.174Z,53.73
2023-08-26T21:38:30.232Z,53.86
2023-08-26T21:41:36.184Z,54.01
2023-08-26T21:44:41.827Z,54.13
2023-08-26T21:47:48.140Z,54.25
2023-08-26T21:51:01.222Z,54.45
2023-08-26T21:54:08.525Z,54.59
2023-08-26T21:57:14.872Z,54.70
2023-08-26T22:00:20.908Z,54.82
2023-08-26T22:03:26.698Z,54.93
2023-08-26T22:06:33.506Z,55.08
2023-08-26T22:09:39.437Z,55.19
2023-08-26T22:12:45.217Z,55.31
2023-08-26T22:15:50.583Z,55.41
2023-08-26T22:18:56.899Z,55.52
2023-08-26T22:22:04.138Z,55.62
2023-08-26T22:25:10.138Z,55.77
2023-08-26T22:28:15.795Z,55.85
2023-08-26T22:31:21.645Z,55.96
2023-08-26T22:34:26.931Z,56.07
2023-08-26T22:37:34.824Z,56.17
2023-08-26T22:40:39.992Z,56.29
2023-08-26T22:43:46.504Z,56.41
2023-08-26T22:46:53.807Z,56.53
2023-08-26T22:49:59.490Z,56.62
2023-08-26T22:53:05.420Z,56.72
2023-08-26T22:56:10.671Z,56.81
2023-08-26T22:59:17.462Z,56.89
2023-08-26T23:02:22.768Z,57.01
2023-08-26T23:05:29.995Z,57.12
2023-08-26T23:08:36.120Z,57.18
2023-08-26T23:11:42.402Z,57.28
2023-08-26T23:14:50.310Z,57.37
2023-08-26T23:17:56.892Z,57.52
2023-08-26T23:21:03.199Z,57.62
2023-08-26T23:24:09.816Z,57.78
2023-08-26T23:27:16.604Z,57.88
2023-08-26T23:30:24.735Z,57.99
2023-08-26T23:33:30.521Z,58.10
2023-08-26T23:36:35.754Z,58.25
2023-08-26T23:39:43.204Z,58.38
2023-08-26T23:42:49.664Z,58.46
2023-08-26T23:45:55.404Z,58.52
2023-08-26T23:49:01.072Z,58.63
2023-08-26T23:52:06.644Z,58.80
2023-08-26T23:55:13.840Z,58.98
2023-08-26T23:58:20.426Z,59.07
